Grandview, Arkansas
Current Conditions -  °F | °C
As of 4:53 PM on Tuesday 25 Nov 2014 (Local Time) from KHRO Reporting Station
Clear Clear  
Wind Chill: 40°   Ceiling: Unl
Heat Index: 43°   Visibility: 10mi
Dew Point: 19°   Wind: 5mph
Humidity: 38%   Direction: 310°NW
Pressure: 30.13"   Gusts: NA
Location:  36.3056°N, 93.5491°W
Report Text: KHRO 252253Z AUTO 31004KT 10SM CLR 06/M07 A3013 RMK AO2 SLP211 T00611072
Loading
Personal Weather Stations






























Interactive Weather Map New forecast layout! Learn more

10-Day Weather Forecast

Advertisements
Track Severe Weather on mobile